• Join FlightAware (Why Join?)
  • Login
  • US Flag 
02:53PM EDT


 

Airport Tracker/Info


-or-


 

Live Flight TrackerFlight Track Log ✈ VP-BLX ✈ 23-Nov-2013 ✈ MDPC / PUJ - UUEE / SVO

Flight Track Log - Related Links

Times and Time Zones

All times are in EST time to prevent confusion due to time zone crossing. See the VP-BLX flight status page for this flight to view local times or setup timezone preferences in your user account.

Time Position Orientation Groundspeed Altitude Reporting Facility
EST Latitude Longitude Course Direction KTS MPH feet Rate Location/Type
12:23PM 18.6000 -68.3000 347° North 190 219 2,500  Level San Juan Center
12:24PM 18.6667 -68.3167 347° North 260 299 4,300 2,100 Climbing San Juan Center
12:25PM 18.7500 -68.3500 339° North 280 322 6,700 2,400 Climbing San Juan Center
12:26PM 18.8167 -68.3833 335° Northwest 280 322 9,200 2,400 Climbing San Juan Center
12:27PM 18.9000 -68.4167 339° North 300 345 11,500 2,220 Climbing San Juan Center
12:28PM 18.9833 -68.4500 339° North 320 368 13,700 2,100 Climbing San Juan Center
12:29PM 19.0667 -68.4833 339° North 320 368 15,700 1,980 Climbing San Juan Center
12:30PM 19.1500 -68.5167 339° North 350 403 17,700 1,860 Climbing San Juan Center
12:31PM 19.2500 -68.5500 343° North 340 391 19,500 1,680 Climbing San Juan Center
12:32PM 19.3333 -68.5833 339° North 350 403 21,100 1,320 Climbing San Juan Center
12:33PM 19.4167 -68.5000 43° Northeast 380 437 22,200 780 Climbing San Juan Center
12:34PM 19.5000 -68.4167 43° Northeast 420 483 22,700 840 Climbing San Juan Center
12:35PM 19.5667 -68.3167 55° Northeast 420 483 23,900 1,140 Climbing San Juan Center
12:36PM 19.6500 -68.2167 48° Northeast 440 506 25,000 1,080 Climbing San Juan Center
12:37PM 19.7333 -68.1167 48° Northeast 460 529 26,100 1,560 Climbing San Juan Center
12:38PM 19.8333 -68.0167 43° Northeast 450 518 28,200 1,440 Climbing San Juan Center
12:39PM 19.9000 -67.9167 55° Northeast 440 506 29,000 360 Climbing San Juan Center
12:40PM 20.0000 -67.8167 43° Northeast 450 518 29,000  Level San Juan Center
12:41PM 20.0833 -67.7167 48° Northeast 460 529 29,000 300 Level San Juan Center
12:42PM 20.1667 -67.6167 48° Northeast 460 529 29,600 720 Climbing San Juan Center
12:43PM 20.2500 -67.5167 48° Northeast 460 529 30,500 840 Climbing San Juan Center
12:44PM 20.3333 -67.4000 53° Northeast 470 541 31,400 960 Climbing San Juan Center
12:45PM 20.4333 -67.3000 43° Northeast 480 552 32,500 840 Climbing San Juan Center
12:46PM 20.5167 -67.1833 53° Northeast 480 552 33,100 240 Climbing San Juan Center
12:47PM 20.6000 -67.0833 48° Northeast 490 564 33,000 -60 Descending San Juan Center
12:48PM 20.7000 -66.9667 47° Northeast 490 564 33,000  Level San Juan Center
12:49PM 20.7833 -66.8667 48° Northeast 480 552 33,000  Level San Juan Center
12:50PM 20.8667 -66.7500 53° Northeast 480 552 33,000  Level San Juan Center
12:51PM 20.9667 -66.6500 43° Northeast 490 564 33,000  Level San Juan Center
12:52PM 21.0500 -66.5333 53° Northeast 480 552 33,000  Level San Juan Center
12:53PM 21.1167 -66.4500 49° Northeast 470 541 33,000  Level San Juan Center
12:54PM 21.2167 -66.3500 43° Northeast 470 541 33,000  Level San Juan Center
12:55PM 21.3000 -66.2333 53° Northeast 480 552 33,000  Level San Juan Center
12:56PM 21.3833 -66.1333 48° Northeast 470 541 33,000  Level San Juan Center
12:57PM 21.4667 -66.0167 52° Northeast 470 541 33,000  Level San Juan Center
12:58PM 21.5500 -65.9000 52° Northeast 470 541 33,000  Level San Juan Center
12:59PM 21.6333 -65.8000 48° Northeast 470 541 33,000  Level San Juan Center
01:00PM 21.7000 -65.6833 58° Northeast 470 541 33,000  Level San Juan Center
01:01PM 21.7833 -65.5667 52° Northeast 460 529 33,000  Level San Juan Center
01:02PM 21.8667 -65.4500 52° Northeast 480 552 33,000  Level San Juan Center
01:03PM 21.9500 -65.3333 52° Northeast 480 552 33,000  Level San Juan Center
01:04PM 22.0167 -65.2333 54° Northeast 490 564 33,000  Level San Juan Center
01:05PM 22.1000 -65.1333 54° Northeast 479 551 33,000  Level New York Oceanic (ODAPS)
01:06PM 22.1833 -65.0000 54° Northeast 450 518 33,000  Level San Juan Center
01:08PM 22.3065 -64.8181 54° Northeast  Level FlightAware Approximate
01:14PM 22.8000 -64.1000 54° Northeast 409 471 33,000  Level New York Oceanic (ODAPS)
01:14PM 22.8333 -64.0333 53° Northeast 482 555 33,000  Level New York Oceanic (ODAPS)
01:15PM 22.8068 -64.0731 54° Northeast  Level FlightAware Approximate
01:16PM 22.8788 -63.9669 53° Northeast  Level FlightAware Approximate
01:17PM 22.9512 -63.8609 53° Northeast  Level FlightAware Approximate
01:18PM 23.0235 -63.7548 53° Northeast  Level FlightAware Approximate
01:19PM 23.0957 -63.6486 54° Northeast  Level FlightAware Approximate
01:20PM 23.2674 -63.4012 54° Northeast 409 471 33,000  Level FlightAware Transoceanic
01:21PM 23.3524 -63.2694 54° Northeast 482 555 33,000  Level FlightAware Transoceanic
01:22PM 23.4262 -63.1597 54° Northeast 482 555 33,000  Level FlightAware Transoceanic
01:23PM 23.5000 -63.0500 38° Northeast 482 555 33,000  Level FlightAware Transoceanic
01:23PM 23.5000 -63.0500 38° Northeast 466 536 33,000  Level New York Oceanic (ODAPS)
01:24PM 23.6038 -62.9627 38° Northeast 482 555 33,000  Level FlightAware Transoceanic
01:25PM 23.7076 -62.8753 38° Northeast 482 555 33,000  Level FlightAware Transoceanic
01:26PM 23.8113 -62.7878 38° Northeast 482 555 33,000  Level FlightAware Transoceanic
01:27PM 23.9149 -62.7001 38° Northeast 482 555 33,000  Level FlightAware Transoceanic
01:27PM 24.0000 -62.6333 38° Northeast 467 537 33,000  Level New York Oceanic (ODAPS)
01:28PM 24.0185 -62.6122 38° Northeast 482 555 33,000  Level FlightAware Transoceanic
01:29PM 24.1221 -62.5243 38° Northeast 466 536 33,000  Level FlightAware Transoceanic
01:41PM 25.4167 -61.4167 38° Northeast 463 533 33,000  Level New York Oceanic (ODAPS)
01:55PM 26.8000 -60.1833 39° Northeast 454 522 33,000  Level New York Oceanic (ODAPS)
01:57PM 27.0000 -60.0000 46° Northeast 465 535 33,000  Level New York Oceanic (ODAPS)
02:09PM 28.0667 -58.7167 47° Northeast 461 531 33,000  Level New York Oceanic (ODAPS)
02:23PM 29.3000 -57.2000 48° Northeast 462 532 33,000  Level New York Oceanic (ODAPS)
02:37PM 30.5000 -55.6500 48° Northeast 457 526 33,000 60 Level New York Oceanic (ODAPS)
02:43PM 31.0000 -55.0000 53° Northeast 463 533 35,000 120 Climbing New York Oceanic (ODAPS)
02:51PM 31.6000 -54.0333 54° Northeast 462 532 35,000  Level New York Oceanic (ODAPS)
03:01PM 32.4000 -52.7333 54° Northeast 451 519 35,000 60 Level New York Oceanic (ODAPS)
03:05PM 32.6333 -52.3667 55° Northeast 447 514 35,900 60 Climbing New York Oceanic (ODAPS)
03:11PM 33.0697 -51.6273 55° Northeast 447 514 35,900  Level FlightAware Transoceanic
03:12PM 33.1420 -51.5033 55° Northeast 447 514 35,900  Level FlightAware Transoceanic
03:13PM 33.2142 -51.3792 55° Northeast 447 514 35,900  Level FlightAware Transoceanic
03:14PM 33.2863 -51.2549 55° Northeast 447 514 35,900  Level FlightAware Transoceanic
03:15PM 33.3582 -51.1303 55° Northeast 447 514 35,900  Level FlightAware Transoceanic
03:16PM 33.4300 -51.0056 55° Northeast 447 514 35,900  Level FlightAware Transoceanic
03:17PM 33.5017 -50.8806 56° Northeast 447 514 35,900  Level FlightAware Transoceanic
03:18PM 33.5733 -50.7554 56° Northeast 447 514 35,900  Level FlightAware Transoceanic
03:18PM 33.6000 -50.7167 56° Northeast 433 498 36,000  Climbing New York Oceanic (ODAPS)
03:19PM 33.6447 -50.6300 56° Northeast 447 514 35,900 -120 Descending FlightAware Transoceanic
03:20PM 33.7160 -50.5044 56° Northeast 447 514 35,900  Level FlightAware Transoceanic
03:21PM 33.7872 -50.3787 56° Northeast 447 514 35,900  Level FlightAware Transoceanic
03:22PM 33.8583 -50.2526 56° Northeast 447 514 35,900  Level FlightAware Transoceanic
03:23PM 33.9292 -50.1264 56° Northeast 447 514 35,900  Level FlightAware Transoceanic
03:24PM 34.0000 -50.0000 61° Northeast 447 514 35,900  Level FlightAware Transoceanic
03:25PM 34.0000 -50.0000 61° Northeast 433 498 36,000  Climbing FlightAware Transoceanic
03:25PM 34.0000 -50.0000 61° Northeast 492 566 36,000  Level New York Oceanic (ODAPS)
03:26PM 34.0656 -49.8582 61° Northeast 433 498 36,000  Level FlightAware Transoceanic
03:27PM 34.1310 -49.7161 61° Northeast 433 498 36,000  Level FlightAware Transoceanic
03:28PM 34.1962 -49.5738 61° Northeast 433 498 36,000  Level FlightAware Transoceanic
03:29PM 34.2613 -49.4313 61° Northeast 433 498 36,000  Level FlightAware Transoceanic
03:30PM 34.3262 -49.2886 61° Northeast 433 498 36,000  Level FlightAware Transoceanic
03:31PM 34.3909 -49.1456 61° Northeast 433 498 36,000  Level FlightAware Transoceanic
03:32PM 34.4624 -48.9873 61° Northeast 492 566 36,000  Level FlightAware Transoceanic
03:32PM 34.4667 -48.9667 61° Northeast 484 557 36,000  Level New York Oceanic (ODAPS)
03:33PM 34.5277 -48.8417 61° Northeast 492 566 36,000  Level FlightAware Transoceanic
03:34PM 34.5929 -48.6959 62° Northeast 492 566 36,000  Level FlightAware Transoceanic
03:35PM 34.6579 -48.5499 62° Northeast 492 566 36,000  Level FlightAware Transoceanic
03:36PM 34.7228 -48.4036 62° Northeast 492 566 36,000  Level FlightAware Transoceanic
03:37PM 34.7875 -48.2571 62° Northeast 492 566 36,000  Level FlightAware Transoceanic
03:38PM 34.8520 -48.1104 62° Northeast 492 566 36,000  Level FlightAware Transoceanic
03:39PM 34.8557 -48.0917 62° Northeast 484 557 36,000  Level FlightAware Transoceanic
03:40PM 34.9199 -47.9451 62° Northeast 484 557 36,000  Level FlightAware Transoceanic
03:41PM 34.9840 -47.7982 62° Northeast 484 557 36,000  Level FlightAware Transoceanic
03:42PM 35.0478 -47.6511 62° Northeast 484 557 36,000  Level FlightAware Transoceanic
03:43PM 35.1115 -47.5038 62° Northeast 484 557 36,000  Level FlightAware Transoceanic
03:44PM 35.1750 -47.3563 62° Northeast 484 557 36,000  Level FlightAware Transoceanic
03:45PM 35.2384 -47.2085 62° Northeast 484 557 36,000  Level FlightAware Transoceanic
03:46PM 35.3016 -47.0605 62° Northeast 484 557 36,000  Level FlightAware Transoceanic
03:46PM 35.2833 -47.1000 62° Northeast 481 554 36,000  Level New York Oceanic (ODAPS)
03:47PM 35.3645 -46.9123 63° Northeast 484 557 36,000  Level FlightAware Transoceanic
03:48PM 35.4273 -46.7638 63° Northeast 484 557 36,000  Level FlightAware Transoceanic
03:49PM 35.4899 -46.6151 63° Northeast 484 557 36,000  Level FlightAware Transoceanic
03:50PM 35.5524 -46.4661 63° Northeast 484 557 36,000  Level FlightAware Transoceanic
03:51PM 35.6146 -46.3170 63° Northeast 484 557 36,000  Level FlightAware Transoceanic
03:52PM 35.5919 -46.3685 63° Northeast 481 554 36,000  Level FlightAware Transoceanic
03:53PM 35.6531 -46.2215 63° Northeast 481 554 36,000  Level FlightAware Transoceanic
03:54PM 35.7141 -46.0743 63° Northeast 481 554 36,000  Level FlightAware Transoceanic
03:55PM 35.7750 -45.9268 63° Northeast 481 554 36,000  Level FlightAware Transoceanic
03:56PM 35.8356 -45.7792 63° Northeast 481 554 36,000  Level FlightAware Transoceanic
03:57PM 35.8961 -45.6313 63° Northeast 481 554 36,000  Level FlightAware Transoceanic
03:58PM 35.9564 -45.4832 63° Northeast 481 554 36,000  Level FlightAware Transoceanic
03:59PM 36.0165 -45.3348 63° Northeast 481 554 36,000  Level FlightAware Transoceanic
04:00PM 36.0764 -45.1863 64° Northeast 481 554 36,000  Level FlightAware Transoceanic
04:00PM 36.1000 -45.1500 64° Northeast 495 570 36,000  Level New York Oceanic (ODAPS)
04:01PM 36.1361 -45.0375 64° Northeast 481 554 36,000  Level FlightAware Transoceanic
04:02PM 36.1957 -44.8885 64° Northeast 481 554 36,000  Level FlightAware Transoceanic
04:03PM 36.2551 -44.7392 64° Northeast 481 554 36,000  Level FlightAware Transoceanic
04:04PM 36.3142 -44.5898 64° Northeast 481 554 36,000  Level FlightAware Transoceanic
04:05PM 36.3732 -44.4401 64° Northeast 481 554 36,000  Level FlightAware Transoceanic
04:06PM 36.4618 -44.2328 64° Northeast 495 570 36,000  Level FlightAware Transoceanic
04:07PM 36.5214 -44.0791 64° Northeast 495 570 36,000  Level FlightAware Transoceanic
04:08PM 36.5808 -43.9252 64° Northeast 495 570 36,000  Level FlightAware Transoceanic
04:09PM 36.6401 -43.7710 64° Northeast 495 570 36,000  Level FlightAware Transoceanic
04:10PM 36.6991 -43.6166 65° Northeast 495 570 36,000  Level FlightAware Transoceanic
04:11PM 36.7579 -43.4620 65° Northeast 495 570 36,000  Level FlightAware Transoceanic
04:12PM 36.8165 -43.3071 65° Northeast 495 570 36,000  Level FlightAware Transoceanic
04:13PM 36.8750 -43.1520 65° Northeast 495 570 36,000  Level FlightAware Transoceanic
04:14PM 36.9332 -42.9967 65° Northeast 495 570 36,000  Level FlightAware Transoceanic
04:14PM 36.9167 -43.0333 65° Northeast 510 587 36,000  Level New York Oceanic (ODAPS)
04:15PM 36.9912 -42.8411 65° Northeast 495 570 36,000  Level FlightAware Transoceanic
04:16PM 37.0490 -42.6853 65° Northeast 495 570 36,000  Level FlightAware Transoceanic
04:17PM 37.1066 -42.5292 65° Northeast 495 570 36,000  Level FlightAware Transoceanic
04:18PM 37.1640 -42.3729 65° Northeast 495 570 36,000  Level FlightAware Transoceanic
04:19PM 37.2212 -42.2164 65° Northeast 495 570 36,000  Level FlightAware Transoceanic
04:20PM 37.2671 -42.0849 65° Northeast 510 587 36,000  Level FlightAware Transoceanic
04:21PM 37.3248 -41.9260 66° East 510 587 36,000  Level FlightAware Transoceanic
04:22PM 37.3822 -41.7669 66° East 510 587 36,000  Level FlightAware Transoceanic
04:23PM 37.4395 -41.6074 66° East 510 587 36,000  Level FlightAware Transoceanic
04:24PM 37.4965 -41.4478 66° East 510 587 36,000  Level FlightAware Transoceanic
04:25PM 37.5533 -41.2879 66° East 510 587 36,000  Level FlightAware Transoceanic
04:26PM 37.6099 -41.1278 66° East 510 587 36,000  Level FlightAware Transoceanic
04:27PM 37.6663 -40.9674 66° East 510 587 36,000  Level FlightAware Transoceanic
04:28PM 37.7225 -40.8068 66° East 510 587 36,000  Level FlightAware Transoceanic
04:28PM 37.7500 -40.7500 67° East 511 588 36,000  Level New York Oceanic (ODAPS)
04:29PM 37.7784 -40.6459 66° East 510 587 36,000  Level FlightAware Transoceanic
04:30PM 37.8341 -40.4848 66° East 510 587 36,000  Level FlightAware Transoceanic
04:31PM 37.8896 -40.3234 67° East 510 587 36,000  Level FlightAware Transoceanic
04:32PM 37.9449 -40.1618 67° East 510 587 36,000  Level FlightAware Transoceanic
04:33PM 38.0000 -40.0000 59° Northeast 510 587 36,000  Level FlightAware Transoceanic
04:34PM 38.0760 -39.8374 59° Northeast 511 588 36,000  Level FlightAware Transoceanic
04:35PM 38.1517 -39.6745 59° Northeast 511 588 36,000  Level FlightAware Transoceanic
04:36PM 38.2272 -39.5113 60° Northeast 511 588 36,000  Level FlightAware Transoceanic
04:37PM 38.3025 -39.3478 60° Northeast 511 588 36,000  Level FlightAware Transoceanic
04:38PM 38.3775 -39.1838 60° Northeast 511 588 36,000  Level FlightAware Transoceanic
04:39PM 38.4523 -39.0196 60° Northeast 511 588 36,000  Level FlightAware Transoceanic
04:40PM 38.5269 -38.8550 60° Northeast 511 588 36,000  Level FlightAware Transoceanic
04:41PM 38.6013 -38.6901 60° Northeast 511 588 36,000  Level FlightAware Transoceanic
04:42PM 38.6754 -38.5248 60° Northeast 511 588 36,000  Level FlightAware Transoceanic
04:43PM 38.7493 -38.3592 60° Northeast 511 588 36,000  Level FlightAware Transoceanic
04:44PM 38.8229 -38.1932 60° Northeast 511 588 36,000  Level FlightAware Transoceanic
04:45PM 38.8964 -38.0269 60° Northeast 511 588 36,000  Level FlightAware Transoceanic
04:46PM 38.9696 -37.8603 61° Northeast 511 588 36,000  Level FlightAware Transoceanic
04:47PM 39.0425 -37.6933 61° Northeast 511 588 36,000  Level FlightAware Transoceanic
04:48PM 39.1152 -37.5260 61° Northeast 511 588 36,000  Level FlightAware Transoceanic
04:49PM 39.1877 -37.3583 61° Northeast 511 588 36,000  Level FlightAware Transoceanic
04:50PM 39.2599 -37.1903 61° Northeast 511 588 36,000  Level FlightAware Transoceanic
04:51PM 39.3319 -37.0219 61° Northeast 511 588 36,000  Level FlightAware Transoceanic
04:52PM 39.4037 -36.8532 61° Northeast 511 588 36,000  Level FlightAware Transoceanic
04:53PM 39.4752 -36.6841 61° Northeast 511 588 36,000  Level FlightAware Transoceanic
04:54PM 39.5464 -36.5147 61° Northeast 511 588 36,000  Level FlightAware Transoceanic
04:55PM 39.6174 -36.3450 62° Northeast 511 588 36,000  Level FlightAware Transoceanic
04:56PM 39.6882 -36.1749 62° Northeast 511 588 36,000  Level FlightAware Transoceanic
04:57PM 39.7587 -36.0044 62° Northeast 511 588 36,000  Level FlightAware Transoceanic
04:58PM 39.8290 -35.8336 62° Northeast 511 588 36,000  Level FlightAware Transoceanic
04:59PM 39.8990 -35.6624 62° Northeast 511 588 36,000  Level FlightAware Transoceanic
05:00PM 39.9687 -35.4909 62° Northeast 511 588 36,000  Level FlightAware Transoceanic
05:01PM 40.0382 -35.3191 62° Northeast 511 588 36,000  Level FlightAware Transoceanic
05:02PM 40.1075 -35.1469 62° Northeast 511 588 36,000  Level FlightAware Transoceanic
05:03PM 40.1765 -34.9743 62° Northeast 511 588 36,000  Level FlightAware Transoceanic
05:04PM 40.2452 -34.8014 63° Northeast 511 588 36,000  Level FlightAware Transoceanic
05:05PM 40.3137 -34.6282 63° Northeast 511 588 36,000  Level FlightAware Transoceanic
05:06PM 40.3820 -34.4546 63° Northeast 511 588 36,000  Level FlightAware Transoceanic
05:07PM 40.4499 -34.2806 63° Northeast 511 588 36,000  Level FlightAware Transoceanic
05:08PM 40.5176 -34.1063 63° Northeast 511 588 36,000  Level FlightAware Transoceanic
05:09PM 40.5851 -33.9316 63° Northeast 511 588 36,000  Level FlightAware Transoceanic
05:10PM 40.6522 -33.7566 63° Northeast 511 588 36,000  Level FlightAware Transoceanic
05:11PM 40.7192 -33.5813 63° Northeast 511 588 36,000  Level FlightAware Transoceanic
05:12PM 40.7858 -33.4056 63° Northeast 511 588 36,000  Level FlightAware Transoceanic
05:13PM 40.8522 -33.2295 64° Northeast 511 588 36,000  Level FlightAware Transoceanic
05:14PM 40.9183 -33.0531 64° Northeast 511 588 36,000  Level FlightAware Transoceanic
05:15PM 40.9841 -32.8763 64° Northeast 511 588 36,000  Level FlightAware Transoceanic
05:16PM 41.0497 -32.6992 64° Northeast 511 588 36,000  Level FlightAware Transoceanic
05:17PM 41.1150 -32.5217 64° Northeast 511 588 36,000  Level FlightAware Transoceanic
05:18PM 41.1800 -32.3439 64° Northeast 511 588 36,000  Level FlightAware Transoceanic
05:19PM 41.2448 -32.1657 64° Northeast 511 588 36,000  Level FlightAware Transoceanic
05:20PM 41.3092 -31.9872 64° Northeast 511 588 36,000  Level FlightAware Transoceanic
05:21PM 41.3735 -31.8083 65° Northeast 511 588 36,000  Level FlightAware Transoceanic
05:22PM 41.4374 -31.6290 65° Northeast 511 588 36,000  Level FlightAware Transoceanic
05:23PM 41.5010 -31.4494 65° Northeast 511 588 36,000  Level FlightAware Transoceanic
05:24PM 41.5644 -31.2695 65° Northeast 511 588 36,000  Level FlightAware Transoceanic
05:25PM 41.6275 -31.0892 65° Northeast 511 588 36,000  Level FlightAware Transoceanic
05:26PM 41.6903 -30.9085 65° Northeast 511 588 36,000  Level FlightAware Transoceanic
05:27PM 41.7528 -30.7275 65° Northeast 511 588 36,000  Level FlightAware Transoceanic
05:28PM 41.8150 -30.5462 65° Northeast 511 588 36,000  Level FlightAware Transoceanic
05:29PM 41.8770 -30.3645 65° Northeast 511 588 36,000  Level FlightAware Transoceanic
05:30PM 41.9386 -30.1824 66° East 511 588 36,000  Level FlightAware Transoceanic
05:31PM 41.9888 -30.0333 66° East  Level FlightAware Approximate
05:32PM 42.0388 -29.8839 66° East  Level FlightAware Approximate
05:33PM 42.0362 -29.9233 58° Northeast  Level FlightAware Approximate
05:34PM 42.1013 -29.7848 58° Northeast  Level FlightAware Approximate
05:35PM 42.1663 -29.6460 58° Northeast  Level FlightAware Approximate
05:36PM 42.2311 -29.5069 58° Northeast  Level FlightAware Approximate
05:37PM 42.2957 -29.3675 58° Northeast  Level FlightAware Approximate
05:38PM 42.3602 -29.2278 58° Northeast  Level FlightAware Approximate
05:39PM 42.4245 -29.0879 58° Northeast  Level FlightAware Approximate
05:40PM 42.4887 -28.9477 58° Northeast  Level FlightAware Approximate
05:41PM 42.5526 -28.8071 58° Northeast  Level FlightAware Approximate
05:42PM 42.6164 -28.6663 58° Northeast  Level FlightAware Approximate
05:43PM 42.6800 -28.5252 58° Northeast  Level FlightAware Approximate
05:44PM 42.7435 -28.3838 59° Northeast  Level FlightAware Approximate
05:45PM 42.8067 -28.2421 59° Northeast  Level FlightAware Approximate
05:46PM 42.8698 -28.1001 59° Northeast  Level FlightAware Approximate
05:47PM 42.9327 -27.9579 59° Northeast  Level FlightAware Approximate
05:48PM 42.9955 -27.8153 59° Northeast  Level FlightAware Approximate
05:49PM 43.0580 -27.6725 59° Northeast  Level FlightAware Approximate
05:50PM 43.1204 -27.5293 59° Northeast  Level FlightAware Approximate
05:51PM 43.1826 -27.3859 59° Northeast  Level FlightAware Approximate
05:52PM 43.2446 -27.2422 59° Northeast  Level FlightAware Approximate
05:53PM 43.3065 -27.0982 59° Northeast  Level FlightAware Approximate
05:54PM 43.3681 -26.9539 60° Northeast  Level FlightAware Approximate
05:55PM 43.4296 -26.8093 60° Northeast  Level FlightAware Approximate
05:56PM 43.4909 -26.6644 60° Northeast  Level FlightAware Approximate
05:57PM 43.5521 -26.5192 60° Northeast  Level FlightAware Approximate
05:58PM 43.6130 -26.3737 60° Northeast  Level FlightAware Approximate
05:59PM 43.6737 -26.2279 60° Northeast  Level FlightAware Approximate
06:00PM 43.7343 -26.0819 60° Northeast  Level FlightAware Approximate
06:01PM 43.7947 -25.9355 60° Northeast  Level FlightAware Approximate
06:02PM 43.8549 -25.7888 60° Northeast  Level FlightAware Approximate
06:03PM 43.9149 -25.6419 60° Northeast  Level FlightAware Approximate
06:04PM 43.9747 -25.4946 61° Northeast  Level FlightAware Approximate
06:05PM 44.0343 -25.3471 61° Northeast  Level FlightAware Approximate
06:06PM 44.0937 -25.1992 61° Northeast  Level FlightAware Approximate
06:07PM 44.1530 -25.0511 61° Northeast  Level FlightAware Approximate
06:08PM 44.2120 -24.9026 61° Northeast  Level FlightAware Approximate
06:09PM 44.2709 -24.7539 61° Northeast  Level FlightAware Approximate
06:10PM 44.3295 -24.6049 61° Northeast  Level FlightAware Approximate
06:11PM 44.3880 -24.4555 61° Northeast  Level FlightAware Approximate
06:12PM 44.4463 -24.3059 61° Northeast  Level FlightAware Approximate
06:13PM 44.5043 -24.1560 61° Northeast  Level FlightAware Approximate
06:14PM 44.5622 -24.0057 62° Northeast  Level FlightAware Approximate
06:15PM 44.6199 -23.8552 62° Northeast  Level FlightAware Approximate
06:16PM 44.6774 -23.7044 62° Northeast  Level FlightAware Approximate
06:17PM 44.7347 -23.5532 62° Northeast  Level FlightAware Approximate
06:18PM 44.7918 -23.4018 62° Northeast  Level FlightAware Approximate
06:19PM 44.8487 -23.2501 62° Northeast  Level FlightAware Approximate
06:20PM 44.9054 -23.0981 62° Northeast  Level FlightAware Approximate
06:21PM 44.9618 -22.9457 62° Northeast  Level FlightAware Approximate
06:22PM 45.0181 -22.7931 62° Northeast  Level FlightAware Approximate
06:23PM 45.0742 -22.6402 63° Northeast  Level FlightAware Approximate
06:24PM 45.1301 -22.4870 63° Northeast  Level FlightAware Approximate
06:25PM 45.1857 -22.3335 63° Northeast  Level FlightAware Approximate
06:26PM 45.2412 -22.1796 63° Northeast  Level FlightAware Approximate
06:27PM 45.2965 -22.0255 63° Northeast  Level FlightAware Approximate
06:28PM 45.3515 -21.8711 63° Northeast  Level FlightAware Approximate
06:29PM 45.4063 -21.7164 63° Northeast  Level FlightAware Approximate
06:30PM 45.4610 -21.5613 63° Northeast  Level FlightAware Approximate
06:31PM 45.5155 -21.4061 63° Northeast  Level FlightAware Approximate
06:32PM 45.5703 -21.2509 63° Northeast  Level FlightAware Approximate
06:33PM 45.6248 -21.0954 63° Northeast  Level FlightAware Approximate
06:34PM 45.6791 -20.9395 63° Northeast  Level FlightAware Approximate
06:35PM 45.7333 -20.7834 64° Northeast  Level FlightAware Approximate
06:36PM 45.7872 -20.6269 64° Northeast  Level FlightAware Approximate
06:37PM 45.8409 -20.4702 64° Northeast  Level FlightAware Approximate
06:38PM 45.8943 -20.3131 64° Northeast  Level FlightAware Approximate
06:39PM 45.9476 -20.1558 64° Northeast  Level FlightAware Approximate
06:40PM 46.0007 -19.9982 59° Northeast  Level FlightAware Approximate
06:41PM 46.0625 -19.8471 59° Northeast  Level FlightAware Approximate
06:42PM 46.1240 -19.6956 60° Northeast  Level FlightAware Approximate
06:43PM 46.1854 -19.5438 60° Northeast  Level FlightAware Approximate
06:44PM 46.2465 -19.3917 60° Northeast  Level FlightAware Approximate
06:45PM 46.3075 -19.2393 60° Northeast  Level FlightAware Approximate
06:46PM 46.3682 -19.0865 60° Northeast  Level FlightAware Approximate
06:47PM 46.4287 -18.9333 60° Northeast  Level FlightAware Approximate
06:48PM 46.4891 -18.7798 60° Northeast  Level FlightAware Approximate
06:49PM 46.5492 -18.6260 60° Northeast  Level FlightAware Approximate
06:50PM 46.6091 -18.4719 60° Northeast  Level FlightAware Approximate
06:51PM 46.6688 -18.3174 61° Northeast  Level FlightAware Approximate
06:52PM 46.7283 -18.1625 61° Northeast  Level FlightAware Approximate
06:53PM 46.7876 -18.0073 61° Northeast  Level FlightAware Approximate
06:54PM 46.8467 -17.8518 61° Northeast  Level FlightAware Approximate
06:55PM 46.9056 -17.6959 61° Northeast  Level FlightAware Approximate
06:56PM 46.9642 -17.5397 61° Northeast  Level FlightAware Approximate
06:57PM 47.0227 -17.3832 61° Northeast  Level FlightAware Approximate
06:58PM 47.0809 -17.2263 61° Northeast  Level FlightAware Approximate
06:59PM 47.1389 -17.0690 61° Northeast  Level FlightAware Approximate
07:00PM 47.1967 -16.9114 62° Northeast  Level FlightAware Approximate
07:01PM 47.2543 -16.7535 62° Northeast  Level FlightAware Approximate
07:02PM 47.3117 -16.5952 62° Northeast  Level FlightAware Approximate
07:03PM 47.3688 -16.4366 62° Northeast  Level FlightAware Approximate
07:04PM 47.4258 -16.2777 62° Northeast  Level FlightAware Approximate
07:05PM 47.4825 -16.1184 62° Northeast  Level FlightAware Approximate
07:06PM 47.5390 -15.9587 62° Northeast  Level FlightAware Approximate
07:07PM 47.5952 -15.7987 62° Northeast  Level FlightAware Approximate
07:08PM 47.6513 -15.6384 63° Northeast  Level FlightAware Approximate
07:09PM 47.7071 -15.4777 63° Northeast  Level FlightAware Approximate
07:10PM 47.7627 -15.3167 63° Northeast  Level FlightAware Approximate
07:11PM 47.8181 -15.1554 63° Northeast  Level FlightAware Approximate
07:12PM 47.8732 -14.9937 63° Northeast  Level FlightAware Approximate
07:13PM 47.9281 -14.8316 63° Northeast  Level FlightAware Approximate
07:14PM 47.9828 -14.6692 63° Northeast  Level FlightAware Approximate
07:15PM 48.0373 -14.5065 63° Northeast  Level FlightAware Approximate
07:16PM 48.0915 -14.3434 63° Northeast  Level FlightAware Approximate
07:17PM 48.1455 -14.1800 64° Northeast  Level FlightAware Approximate
07:18PM 48.1993 -14.0162 64° Northeast  Level FlightAware Approximate
07:19PM 48.2528 -13.8521 64° Northeast  Level FlightAware Approximate
07:20PM 48.3061 -13.6876 64° Northeast  Level FlightAware Approximate
07:21PM 48.3592 -13.5228 64° Northeast  Level FlightAware Approximate
07:22PM 48.4120 -13.3577 64° Northeast  Level FlightAware Approximate
07:23PM 48.4646 -13.1922 64° Northeast  Level FlightAware Approximate
07:24PM 48.5169 -13.0264 64° Northeast  Level FlightAware Approximate
07:25PM 48.5690 -12.8602 65° Northeast  Level FlightAware Approximate
07:26PM 48.6209 -12.6937 65° Northeast  Level FlightAware Approximate
07:27PM 48.6726 -12.5269 65° Northeast  Level FlightAware Approximate
07:27PM 49.6444 -8.9793 65° Northeast 458 527 39,000  Level FlightAware UK
07:28PM 49.6650 -8.8905 70° East 456 525 39,000  Level FlightAware UK
07:28PM 49.6858 -8.8017 70° East 458 527 39,000  Level FlightAware UK
07:29PM 49.7067 -8.7122 70° East 458 527 39,000  Level FlightAware UK
07:29PM 49.7339 -8.6072 68° East 458 527 39,000  Level FlightAware UK
07:30PM 49.7643 -8.5049 65° Northeast 460 529 39,000  Level FlightAware UK
07:31PM 49.7900 -8.4187 65° Northeast 460 529 39,000  Level FlightAware UK
07:31PM 49.8151 -8.3328 66° East 460 529 39,000  Level FlightAware UK
07:32PM 49.8396 -8.2468 66° East 462 532 39,000  Level FlightAware UK
07:32PM 49.8622 -8.1589 68° East 460 529 39,000  Level FlightAware UK
07:33PM 49.8892 -8.0556 68° East 458 527 39,000  Level FlightAware UK
07:33PM 49.9128 -7.9699 67° East 458 527 39,000  Level FlightAware UK
07:34PM 49.9375 -7.8851 66° East 460 529 39,000  Level FlightAware UK
07:34PM 49.9599 -7.7981 68° East 460 529 39,000  Level FlightAware UK
07:35PM 49.9855 -7.6941 69° East 460 529 39,000  Level FlightAware UK
07:35PM 50.0084 -7.6084 67° East 458 527 39,000  Level FlightAware UK
07:36PM 50.0312 -7.5231 67° East 458 527 39,000  Level FlightAware UK
07:36PM 50.0538 -7.4378 68° East 458 527 39,000  Level FlightAware UK
07:36PM 50.0555 -7.4285 68° East 428 493 39,000  Level FlightAware ADS-B (LFOM)
07:37PM 50.0824 -7.3251 68° East 427 491 39,000  Level FlightAware ADS-B (LFOM)
07:37PM 50.1059 -7.2341 68° East 428 493 39,000  Level FlightAware ADS-B (LFOM)
07:38PM 50.1293 -7.1436 68° East 428 493 39,000  Level FlightAware ADS-B (LFOM)
07:38PM 50.1512 -7.0584 68° East 428 493 39,000  Level FlightAware ADS-B (LFOM)
07:39PM 50.1730 -6.9736 68° East 428 493 39,000  Level FlightAware ADS-B (LFOM)
07:39PM 50.1944 -6.8896 68° East 427 491 39,000  Level FlightAware ADS-B (LFOM)
07:40PM 50.2175 -6.7990 68° East 426 490 39,000  Level FlightAware ADS-B
07:41PM 50.2414 -6.7046 68° East 426 490 39,000  Level FlightAware ADS-B
07:41PM 50.2641 -6.6143 68° East 425 489 39,000  Level FlightAware ADS-B
07:42PM 50.2888 -6.5161 69° East 424 488 39,000  Level FlightAware ADS-B (LFOM)
07:42PM 50.3099 -6.4317 69° East 424 488 39,000  Level FlightAware ADS-B (LFOM)
07:43PM 50.3313 -6.3457 69° East 423 487 39,000  Level FlightAware ADS-B (LFOM)
07:43PM 50.3522 -6.2616 69° East 421 484 39,000  Level FlightAware ADS-B (LFOM)
07:44PM 50.3852 -6.1281 69° East 420 483 39,000  Level FlightAware ADS-B (LFOM)
07:44PM 50.3872 -6.1225 69° East 456 525 39,000  Level FlightAware UK
07:44PM 50.4013 -6.0624 69° East 420 483 39,000  Level FlightAware ADS-B (EGDX / DGX)
07:45PM 50.4268 -5.9584 69° East 420 483 39,000  Level FlightAware ADS-B
07:45PM 50.4284 -5.9527 69° East 458 527 39,000  Level FlightAware UK
07:45PM 50.4492 -5.8671 69° East 454 522 39,000  Level FlightAware UK
07:45PM 50.4496 -5.8647 69° East 419 482 39,000  Level FlightAware ADS-B
07:46PM 50.4704 -5.7793 69° East 420 483 39,000  Level FlightAware ADS-B (LFOM)
07:46PM 50.4908 -5.6949 69° East 420 483 39,000  Level FlightAware ADS-B (LFOM)
07:47PM 50.5113 -5.6092 69° East 420 483 39,000  Level FlightAware ADS-B (LFOM)
07:47PM 50.5321 -5.5227 69° East 418 481 39,000  Level FlightAware ADS-B (EGDX / DGX)
07:48PM 50.5476 -5.4580 69° East 417 480 39,000  Level FlightAware ADS-B
07:48PM 50.5692 -5.3676 69° East 416 479 39,000  Level FlightAware ADS-B
07:49PM 50.5821 -5.3133 69° East 416 479 39,000  Level FlightAware ADS-B
07:49PM 50.5894 -5.2826 70° East 416 479 39,000  Level FlightAware ADS-B (EGDX / DGX)
07:49PM 50.6026 -5.2270 69° East 416 479 39,000  Level FlightAware ADS-B
07:49PM 50.6084 -5.2023 70° East 417 480 39,000  Level FlightAware ADS-B
07:50PM 50.6227 -5.1417 70° East 417 480 39,000  Level FlightAware ADS-B
07:50PM 50.6303 -5.1091 70° East 417 480 39,000  Level FlightAware ADS-B (EGDX / DGX)
07:50PM 50.6427 -5.0565 70° East 416 479 39,000  Level FlightAware ADS-B
07:50PM 50.6526 -5.0142 70° East 415 478 39,000  Level FlightAware ADS-B (EGBS)
07:51PM 50.6632 -4.9689 70° East 415 478 39,000  Level FlightAware ADS-B
07:51PM 50.6738 -4.9231 70° East 415 478 39,000  Level FlightAware ADS-B
07:51PM 50.6829 -4.8839 70° East 414 476 39,000  Level FlightAware ADS-B
07:51PM 50.6921 -4.8447 70° East 411 473 39,000  Level FlightAware ADS-B
07:52PM 50.6962 -4.8267 70° East 413 475 39,000  Level FlightAware ADS-B (EGFH / SWS)
07:52PM 50.7025 -4.8001 70° East 413 475 39,000  Level FlightAware ADS-B
07:52PM 50.7123 -4.7577 70° East 413 475 39,000  Level FlightAware ADS-B (EGBS)
07:52PM 50.7229 -4.7120 70° East 413 475 39,000  Level FlightAware ADS-B
07:52PM 50.7259 -4.6987 70° East 413 475 39,000  Level FlightAware ADS-B (EGFH / SWS)
07:53PM 50.7324 -4.6705 70° East 413 475 39,000  Level FlightAware ADS-B (EGFH / SWS)
07:53PM 50.7424 -4.6271 70° East 413 475 39,000  Level FlightAware ADS-B
07:53PM 50.7519 -4.5860 70° East 413 475 39,000  Level FlightAware ADS-B (LFOM)
07:53PM 50.7573 -4.5619 70° East 413 475 39,000  Level FlightAware ADS-B
07:53PM 50.7632 -4.5365 70° East 414 476 39,000  Level FlightAware ADS-B
07:53PM 50.7637 -4.5340 72° East 414 476 39,000  Level FlightAware ADS-B
07:54PM 50.7832 -4.4486 70° East 415 478 39,000  Level FlightAware ADS-B
07:54PM 50.7844 -4.4432 70° East 415 478 39,000  Level FlightAware ADS-B
07:54PM 50.7878 -4.4285 70° East 413 475 39,000  Level FlightAware ADS-B
07:54PM 50.7942 -4.4001 70° East 415 478 39,000  Level FlightAware ADS-B (LFOM)
07:54PM 50.7985 -4.3812 70° East 413 475 39,000  Level FlightAware ADS-B
07:54PM 50.8029 -4.3618 70° East 415 478 39,000  Level FlightAware ADS-B
07:54PM 50.8047 -4.3539 70° East 414 476 39,000  Level FlightAware ADS-B (EGDX / DGX)
07:54PM 50.8084 -4.3375 70° East 411 473 39,000  Level FlightAware ADS-B
07:55PM 50.8135 -4.3145 70° East 414 476 39,000  Level FlightAware ADS-B (EGDX / DGX)
07:55PM 50.8166 -4.3011 70° East 411 473 39,000  Level FlightAware ADS-B
07:55PM 50.8231 -4.2721 70° East 413 475 39,000  Level FlightAware ADS-B
07:55PM 50.8267 -4.2557 71° East 410 472 39,000  Level FlightAware ADS-B
07:55PM 50.8297 -4.2425 70° East 410 472 39,000  Level FlightAware ADS-B
07:55PM 50.8378 -4.2069 70° East 410 472 39,000  Level FlightAware ADS-B
07:55PM 50.8428 -4.1846 70° East 411 473 39,000  Level FlightAware ADS-B
07:55PM 50.8441 -4.1792 69° East 408 470 39,000  Level FlightAware ADS-B
07:56PM 50.8509 -4.1490 70° East 411 473 39,000  Level FlightAware ADS-B (EGFH / SWS)
07:56PM 50.8562 -4.1256 70° East 411 473 39,000  Level FlightAware ADS-B
07:56PM 50.8621 -4.0992 70° East 411 473 39,000  Level FlightAware ADS-B
07:56PM 50.8640 -4.0907 71° East 411 473 39,000  Level FlightAware ADS-B (EGFH / SWS)
07:56PM 50.8701 -4.0637 70° East 410 472 39,000  Level FlightAware ADS-B
07:56PM 50.8753 -4.0402 71° East 407 468 39,000  Level FlightAware ADS-B
07:56PM 50.8815 -4.0126 70° East 410 472 39,000  Level FlightAware ADS-B
07:56PM 50.8855 -3.9946 71° East 409 471 39,000  Level FlightAware ADS-B (EGFH / SWS)
07:57PM 50.8918 -3.9663 70° East 409 471 39,000  Level FlightAware ADS-B
07:57PM 50.8931 -3.9607 71° East 407 468 39,000  Level FlightAware ADS-B
07:57PM 50.9004 -3.9280 70° East 408 470 39,000  Level FlightAware ADS-B
07:57PM 50.9043 -3.9105 71° East 408 470 39,000  Level FlightAware ADS-B
07:57PM 50.9105 -3.8824 71° East 408 470 39,000  Level FlightAware ADS-B
07:57PM 50.9165 -3.8554 71° East 405 466 39,000  Level FlightAware ADS-B
07:57PM 50.9194 -3.8421 71° East 408 470 39,000  Level FlightAware ADS-B
07:57PM 50.9229 -3.8265 70° East 408 470 39,000  Level FlightAware ADS-B
07:58PM 50.9384 -3.7563 71° East 408 470 39,000  Level FlightAware ADS-B
07:58PM 50.9410 -3.7443 71° East 408 470 39,000  Level FlightAware ADS-B
07:58PM 50.9571 -3.6711 71° East 408 470 39,000  Level FlightAware ADS-B
07:58PM 50.9604 -3.6561 71° East 408 470 39,000  Level FlightAware ADS-B
07:59PM 50.9761 -3.5844 71° East 409 471 39,000  Level FlightAware ADS-B
07:59PM 50.9795 -3.5687 71° East 409 471 39,000  Level FlightAware ADS-B
07:59PM 50.9949 -3.4981 71° East 410 472 39,000  Level FlightAware ADS-B
08:00PM 50.9991 -3.4788 71° East 409 471 39,000  Level FlightAware ADS-B (EGDM)
08:00PM 51.0137 -3.4117 71° East 410 472 39,000  Level FlightAware ADS-B
08:00PM 51.0197 -3.3838 71° East 410 472 39,000  Level FlightAware ADS-B
08:00PM 51.0322 -3.3262 71° East 411 473 39,000  Level FlightAware ADS-B
08:01PM 51.0371 -3.3037 71° East 411 473 39,000  Level FlightAware ADS-B
08:01PM 51.0508 -3.2399 71° East 411 473 39,000  Level FlightAware ADS-B
08:01PM 51.0559 -3.2162 71° East 411 473 39,000  Level FlightAware ADS-B
08:01PM 51.0694 -3.1537 71° East 411 473 39,000  Level FlightAware ADS-B
08:02PM 51.0747 -3.1287 71° East 411 473 39,000  Level FlightAware ADS-B (EGBS)
08:02PM 51.0877 -3.0677 71° East 413 475 39,000  Level FlightAware ADS-B
08:02PM 51.0930 -3.0426 71° East 414 476 39,000  Level FlightAware ADS-B (EGBS)
08:02PM 51.1060 -2.9813 71° East 415 478 39,000  Level FlightAware ADS-B
08:03PM 51.1114 -2.9560 71° East 416 479 39,000  Level FlightAware ADS-B
08:03PM 51.1251 -2.8912 71° East 416 479 39,000  Level FlightAware ADS-B
08:03PM 51.1294 -2.8709 72° East 417 480 39,000  Level FlightAware ADS-B
08:03PM 51.1438 -2.8021 71° East 417 480 39,000  Level FlightAware ADS-B
08:04PM 51.1464 -2.7898 72° East 417 480 39,000  Level FlightAware ADS-B
08:04PM 51.1625 -2.7127 72° East 418 481 39,000  Level FlightAware ADS-B
08:04PM 51.1665 -2.6936 71° East 419 482 39,000  Level FlightAware ADS-B (EGBS)
08:05PM 51.1814 -2.6227 71° East 418 481 39,000  Level FlightAware ADS-B
08:05PM 51.1842 -2.6090 72° East 418 481 39,000  Level FlightAware ADS-B
08:05PM 51.1996 -2.5355 72° East 418 481 39,000  Level FlightAware ADS-B
08:05PM 51.2022 -2.5232 72° East 418 481 39,000  Level FlightAware ADS-B
08:06PM 51.2174 -2.4503 72° East 418 481 39,000  Level FlightAware ADS-B
08:06PM 51.2208 -2.4336 72° East 418 481 39,000  Level FlightAware ADS-B (EGBS)
08:06PM 51.2361 -2.3589 72° East 418 481 39,000  Level FlightAware ADS-B
08:06PM 51.2389 -2.3451 72° East 418 481 39,000  Level FlightAware ADS-B
08:07PM 51.2543 -2.2704 72° East 418 481 39,000  Level FlightAware ADS-B
08:07PM 51.2557 -2.2636 72° East 417 480 39,000  Level FlightAware ADS-B
08:07PM 51.2726 -2.1808 72° East 416 479 39,000  Level FlightAware ADS-B
08:07PM 51.2746 -2.1709 72° East 417 480 39,000  Level FlightAware ADS-B
08:08PM 51.2906 -2.0920 72° East 415 478 39,000  Level FlightAware ADS-B
08:08PM 51.2920 -2.0852 72° East 415 478 39,000  Level FlightAware ADS-B
08:08PM 51.3086 -2.0033 72° East 415 478 39,000  Level FlightAware ADS-B
08:08PM 51.3096 -1.9984 73° East 414 476 39,000  Level FlightAware ADS-B
08:09PM 51.3262 -1.9154 72° East 414 476 39,000  Level FlightAware ADS-B
08:09PM 51.3270 -1.9117 71° East 414 476 39,000  Level FlightAware ADS-B
08:09PM 51.3439 -1.8275 72° East 414 476 39,000  Level FlightAware ADS-B
08:09PM 51.3498 -1.7982 72° East 411 473 39,000  Level FlightAware ADS-B
08:09PM 51.3562 -1.7663 72° East 411 473 39,000  Level FlightAware ADS-B (EGUO)
08:10PM 51.3618 -1.7384 72° East 414 476 39,000  Level FlightAware ADS-B
08:10PM 51.3627 -1.7335 73° East 414 476 39,000  Level FlightAware ADS-B (LFOM)
08:10PM 51.3646 -1.7242 72° East 415 478 39,000  Level FlightAware ADS-B (LFOM)
08:10PM 51.3739 -1.6776 72° East 413 475 39,000  Level FlightAware ADS-B (EGUO)
08:10PM 51.3794 -1.6501 72° East 417 480 39,000  Level FlightAware ADS-B
08:10PM 51.3869 -1.6120 72° East 414 476 39,000  Level FlightAware ADS-B
08:10PM 51.3908 -1.5920 73° East 414 476 39,000  Level FlightAware ADS-B
08:11PM 51.3963 -1.5643 72° East 416 479 39,000  Level FlightAware ADS-B
08:11PM 51.4044 -1.5232 72° East 414 476 39,000  Level FlightAware ADS-B
08:11PM 51.4081 -1.5044 72° East 414 476 39,000  Level FlightAware ADS-B
08:11PM 51.4148 -1.4702 73° East 414 476 39,000  Level FlightAware ADS-B
08:11PM 51.4156 -1.4664 72° East 416 479 39,000  Level FlightAware ADS-B
08:11PM 51.4201 -1.4434 73° East 413 475 39,000  Level FlightAware ADS-B
08:11PM 51.4217 -1.4351 72° East 414 476 39,000  Level FlightAware ADS-B
08:11PM 51.4271 -1.4078 73° East 414 476 39,000  Level FlightAware ADS-B
08:12PM 51.4329 -1.3784 72° East 416 479 39,000  Level FlightAware ADS-B
08:12PM 51.4343 -1.3708 73° East 414 476 39,000  Level FlightAware ADS-B
08:12PM 51.4379 -1.3528 72° East 414 476 39,000  Level FlightAware ADS-B (EGWE)
08:12PM 51.4423 -1.3301 73° East 414 476 39,000  Level FlightAware ADS-B
08:12PM 51.4451 -1.3158 73° East 415 478 39,000  Level FlightAware ADS-B
08:12PM 51.4504 -1.2888 73° East 417 480 39,000  Level FlightAware ADS-B
08:12PM 51.4514 -1.2837 73° East 414 476 39,000  Level FlightAware ADS-B
08:12PM 51.4578 -1.2507 73° East 415 478 39,000  Level FlightAware ADS-B
08:13PM 51.4666 -1.2054 73° East 418 481 39,000  Level FlightAware ADS-B (EGLF / FAB)
08:13PM 51.4679 -1.1984 73° East 418 481 39,000  Level FlightAware ADS-B
08:13PM 51.4715 -1.1802 73° East 416 479 39,000  Level FlightAware ADS-B
08:13PM 51.4766 -1.1538 73° East 417 480 39,000  Level FlightAware ADS-B
08:13PM 51.4838 -1.1165 73° East 419 482 39,000  Level FlightAware ADS-B (EGLF / FAB)
08:13PM 51.4855 -1.1077 72° East 418 481 39,000  Level FlightAware ADS-B
08:13PM 51.4888 -1.0905 73° East 416 479 39,000  Level FlightAware ADS-B
08:13PM 51.4947 -1.0597 73° East 416 479 39,000  Level FlightAware ADS-B
08:14PM 51.5026 -1.0186 73° East 418 481 39,000  Level FlightAware ADS-B
08:14PM 51.5052 -1.0053 73° East 416 479 39,000  Level FlightAware ADS-B (EGWE)
08:14PM 51.5171 -0.9428 73° East 416 479 39,000  Level FlightAware ADS-B
08:14PM 51.5198 -0.9283 73° East 418 481 39,000  Level FlightAware ADS-B
08:14PM 51.5271 -0.8905 73° East 415 478 39,000  Level FlightAware ADS-B
08:15PM 51.5370 -0.8388 73° East 417 480 39,000  Level FlightAware ADS-B
08:15PM 51.5443 -0.8003 73° East 417 480 39,000  Level FlightAware ADS-B
08:15PM 51.5498 -0.7713 73° East 415 478 39,000  Level FlightAware ADS-B
08:15PM 51.5541 -0.7487 73° East 417 480 39,000  Level FlightAware ADS-B
08:15PM 51.5596 -0.7197 73° East 415 478 39,000  Level FlightAware ADS-B
08:16PM 51.5660 -0.6856 73° East 415 478 39,000  Level FlightAware ADS-B
08:16PM 51.5709 -0.6598 73° East 417 480 39,000  Level FlightAware ADS-B
08:16PM 51.5838 -0.5909 73° East 418 481 39,000  Level FlightAware ADS-B
08:16PM 51.5881 -0.5682 73° East 418 481 39,000  Level FlightAware ADS-B
08:16PM 51.5900 -0.5580 73° East 415 478 39,000  Level FlightAware ADS-B
08:16PM 51.5935 -0.5390 73° East 418 481 39,000  Level FlightAware ADS-B
08:16PM 51.5976 -0.5175 73° East 418 481 39,000  Level FlightAware ADS-B (EGLC / LCY)
08:17PM 51.6002 -0.5035 73° East 416 479 39,000  Level FlightAware ADS-B (EGWE)
08:17PM 51.6048 -0.4788 73° East 419 482 39,000  Level FlightAware ADS-B
08:17PM 51.6070 -0.4668 73° East 416 479 39,000  Level FlightAware ADS-B
08:17PM 51.6091 -0.4554 73° East 416 479 39,000  Level FlightAware ADS-B
08:17PM 51.6218 -0.3876 73° East 419 482 39,000  Level FlightAware ADS-B
08:17PM 51.6252 -0.3692 73° East 416 479 39,000  Level FlightAware ADS-B
08:18PM 51.6349 -0.3170 73° East 417 480 39,000  Level FlightAware ADS-B
08:18PM 51.6384 -0.2979 74° East 420 483 39,000  Level FlightAware ADS-B
08:18PM 51.6505 -0.2337 73° East 418 481 39,000  Level FlightAware ADS-B
08:18PM 51.6528 -0.2231 71° East 416 479 39,000  Level FlightAware ADS-B
08:18PM 51.6577 -0.2036 68° East 415 478 39,000  Level FlightAware ADS-B
08:18PM 51.6593 -0.1982 65° Northeast 415 478 39,000  Level FlightAware ADS-B (EGLF / FAB)
08:18PM 51.6637 -0.1836 64° Northeast 412 474 39,000  Level FlightAware ADS-B
08:18PM 51.6654 -0.1784 62° Northeast 412 474 39,000  Level FlightAware ADS-B
08:19PM 51.6799 -0.1387 60° Northeast 411 473 39,000  Level FlightAware ADS-B
08:19PM 51.7085 -0.0594 60° Northeast 410 472 39,000  Level FlightAware ADS-B
08:19PM 51.7191 -0.0295 60° Northeast 411 473 39,000  Level FlightAware ADS-B
08:19PM 51.7213 -0.0232 61° Northeast 407 468 39,000  Level FlightAware ADS-B
08:20PM 51.7465 0.0518 61° Northeast 411 473 39,000  Level FlightAware ADS-B
08:20PM 51.7497 0.0615 62° Northeast 410 472 39,000  Level FlightAware ADS-B (EGDM)
08:20PM 51.7737 0.1332 62° Northeast 412 474 39,000  Level FlightAware ADS-B
08:20PM 51.7768 0.1424 61° Northeast 411 473 39,000  Level FlightAware ADS-B (EGLF / FAB)
08:21PM 51.8008 0.2136 61° Northeast 411 473 39,000  Level FlightAware ADS-B
08:21PM 51.8029 0.2198 61° Northeast 411 473 39,000  Level FlightAware ADS-B
08:21PM 51.8283 0.2952 61° Northeast 413 475 39,000  Level FlightAware ADS-B
08:21PM 51.8298 0.2994 60° Northeast 413 475 39,000  Level FlightAware ADS-B
08:22PM 51.8559 0.3770 61° Northeast 414 476 39,000  Level FlightAware ADS-B
08:22PM 51.8578 0.3829 62° Northeast 414 476 39,000  Level FlightAware ADS-B
08:22PM 51.8832 0.4588 62° Northeast 415 478 39,000  Level FlightAware ADS-B
08:22PM 51.8846 0.4629 61° Northeast 415 478 39,000  Level FlightAware ADS-B
08:23PM 51.9108 0.5415 62° Northeast 416 479 39,000  Level FlightAware ADS-B
08:23PM 51.9126 0.5467 62° Northeast 417 480 39,000  Level FlightAware ADS-B
08:23PM 51.9384 0.6244 62° Northeast 417 480 39,000  Level FlightAware ADS-B
08:23PM 51.9399 0.6290 62° Northeast 417 480 39,000  Level FlightAware ADS-B
08:24PM 51.9662 0.7080 62° Northeast 417 480 39,000  Level FlightAware ADS-B
08:24PM 51.9675 0.7122 63° Northeast 417 480 39,000  Level FlightAware ADS-B
08:24PM 51.9936 0.7913 62° Northeast 416 479 39,000  Level FlightAware ADS-B
08:24PM 51.9946 0.7942 61° Northeast 416 479 39,000  Level FlightAware ADS-B
08:25PM 52.0209 0.8740 62° Northeast 417 480 39,000  Level FlightAware ADS-B
08:25PM 52.0217 0.8763 62° Northeast 417 480 39,000  Level FlightAware ADS-B
08:25PM 52.0484 0.9576 62° Northeast 419 482 39,000  Level FlightAware ADS-B
08:25PM 52.0479 0.9561 240° Southwest 419 482 39,000  Level FlightAware ADS-B
08:26PM 52.0757 1.0412 62° Northeast 420 483 39,000  Level FlightAware ADS-B
08:26PM 52.0753 1.0400 240° Southwest 420 483 39,000  Level FlightAware ADS-B
08:26PM 52.1029 1.1248 62° Northeast 421 484 39,000  Level FlightAware ADS-B
08:27PM 52.1308 1.2106 62° Northeast 422 486 39,000  Level FlightAware ADS-B (EGKA / ESH)
08:27PM 52.1316 1.2131 63° Northeast 422 486 39,000  Level FlightAware ADS-B
08:27PM 52.1578 1.2940 62° Northeast 424 488 39,000  Level FlightAware ADS-B
08:27PM 52.1591 1.2981 63° Northeast 424 488 39,000  Level FlightAware ADS-B
08:28PM 52.1858 1.3810 62° Northeast 423 487 39,000  Level FlightAware ADS-B (EGLF / FAB)
08:28PM 52.1868 1.3839 61° Northeast 423 487 39,000  Level FlightAware ADS-B
08:28PM 52.2128 1.4652 62° Northeast 423 487 39,000  Level FlightAware ADS-B (EGLF / FAB)
08:28PM 52.2143 1.4699 62° Northeast 423 487 39,000  Level FlightAware ADS-B
08:29PM 52.2423 1.5571 62° Northeast 422 486 39,000  Level FlightAware ADS-B
08:29PM 52.2382 1.5444 242° Southwest 423 487 39,000  Level FlightAware ADS-B (ZSSS / SHA)
08:29PM 52.2703 1.6448 62° Northeast 424 488 39,000  Level FlightAware ADS-B
08:30PM 52.2878 1.6998 62° Northeast 424 488 39,000  Level FlightAware ADS-B (EGKA / ESH)
08:30PM 52.2977 1.7307 62° Northeast 424 488 39,000  Level FlightAware ADS-B
08:30PM 52.3176 1.7937 63° Northeast 425 489 39,000  Level FlightAware ADS-B (KAUN)
08:30PM 52.3250 1.8168 62° Northeast 425 489 39,000  Level FlightAware ADS-B
08:31PM 52.3446 1.8788 63° Northeast 426 490 39,000  Level FlightAware ADS-B
08:31PM 52.3521 1.9026 63° Northeast 427 491 39,000  Level FlightAware ADS-B
08:31PM 52.3722 1.9667 63° Northeast 427 491 39,000  Level FlightAware ADS-B
08:31PM 52.3796 1.9899 63° Northeast 427 491 39,000  Level FlightAware ADS-B
08:32PM 52.4018 2.0608 63° Northeast 427 491 39,000  Level FlightAware ADS-B (KAUN)
08:32PM 52.4062 2.0749 63° Northeast 427 491 39,000  Level FlightAware ADS-B
08:32PM 52.4286 2.1466 63° Northeast 428 493 39,000  Level FlightAware ADS-B
08:32PM 52.4333 2.1619 63° Northeast 428 493 39,000  Level FlightAware ADS-B
08:33PM 52.4568 2.2373 63° Northeast 427 491 39,000  Level FlightAware ADS-B (EGKA / ESH)
08:33PM 52.4604 2.2491 63° Northeast 428 493 39,000  Level FlightAware ADS-B
08:34PM 52.4880 2.3381 63° Northeast 427 491 39,000  Level FlightAware ADS-B
08:34PM 52.4909 2.3473 63° Northeast 427 491 39,000  Level FlightAware ADS-B
08:34PM 52.5150 2.4253 63° Northeast 427 491 39,000  Level FlightAware ADS-B
08:34PM 52.5146 2.4241 241° Southwest 427 491 39,000  Level FlightAware ADS-B
08:35PM 52.5418 2.5126 63° Northeast 427 491 39,000  Level FlightAware ADS-B
08:35PM 52.5509 2.5421 63° Northeast 425 489 39,000  Level FlightAware ADS-B (EGKA / ESH)
08:35PM 52.5683 2.5990 63° Northeast 425 489 39,000  Level FlightAware ADS-B
08:35PM 52.5842 2.6507 63° Northeast 425 489 39,000  Level FlightAware ADS-B (KAUN)
08:36PM 52.5954 2.6875 63° Northeast 425 489 39,000  Level FlightAware ADS-B
08:36PM 52.6121 2.7423 63° Northeast 426 490 39,000  Level FlightAware ADS-B (EGKA / ESH)
08:36PM 52.6241 2.7818 63° Northeast 426 490 39,000  Level FlightAware ADS-B
08:36PM 52.6369 2.8237 63° Northeast 427 491 39,000  Level FlightAware ADS-B (EGKA / ESH)
08:37PM 52.6511 2.8708 64° Northeast 428 493 39,000  Level FlightAware ADS-B
08:37PM 52.6738 2.9458 63° Northeast 425 489 39,000  Level FlightAware ADS-B (KAUN)
08:37PM 52.6841 2.9800 64° Northeast 428 493 39,000  Level FlightAware ADS-B
08:38PM 52.7031 3.0433 64° Northeast 425 489 39,000  Level FlightAware ADS-B (KAUN)
08:38PM 52.7249 3.1156 64° Northeast 428 493 39,000  Level FlightAware ADS-B (EGKA / ESH)
08:39PM 52.7697 3.2657 64° Northeast 424 488 39,000  Level FlightAware ADS-B (KAUN)
08:39PM 52.7869 3.3236 64° Northeast 427 491 39,000  Level FlightAware ADS-B (EGKA / ESH)
08:39PM 52.7958 3.3534 64° Northeast 423 487 39,000  Level FlightAware ADS-B (KAUN)
08:40PM 52.8045 3.3828 64° Northeast 424 488 39,000  Level FlightAware ADS-B (KAUN)
08:40PM 52.8357 3.4882 64° Northeast 424 488 39,000  Level FlightAware ADS-B (KAUN)
08:41PM 52.8611 3.5745 64° Northeast 425 489 39,000  Level FlightAware ADS-B (KAUN)
08:41PM 52.8923 3.6807 64° Northeast 426 490 39,000  Level FlightAware ADS-B (KAUN)
08:41PM 52.8934 3.6840 64° Northeast 458 527 39,000  Level FlightAware UK
08:42PM 52.9181 3.7690 64° Northeast 427 491 39,000  Level FlightAware ADS-B (KAUN)
08:42PM 52.9451 3.8625 64° Northeast 460 529 39,000  Level FlightAware UK
08:43PM 52.9630 3.9238 64° Northeast 430 495 39,000  Level FlightAware ADS-B (KAUN)
08:43PM 52.9892 4.0144 64° Northeast 432 497 39,000  Level FlightAware ADS-B (KAUN)
08:43PM 52.9990 4.0485 64° Northeast 436 502 39,000  Level FlightAware ADS-B (EGXW / WTN)
08:44PM 53.0256 4.1409 64° Northeast 435 501 39,000  Level FlightAware ADS-B (EGXW / WTN)
08:44PM 53.0326 4.1652 65° Northeast 436 502 39,000  Level FlightAware ADS-B (EGXW / WTN)
08:45PM 53.0692 4.2933 65° Northeast 433 498 39,000  Level FlightAware ADS-B (KAUN)
08:45PM 53.0980 4.3946 65° Northeast 432 497 39,000  Level FlightAware ADS-B (KAUN)
08:46PM 53.1240 4.4862 65° Northeast 433 498 39,000  Level FlightAware ADS-B (KAUN)
08:46PM 53.1590 4.6103 65° Northeast 433 498 39,000  Level FlightAware ADS-B (KAUN)
08:47PM 53.1843 4.7005 65° Northeast 435 501 39,000  Level FlightAware ADS-B (KAUN)
08:48PM 53.2193 4.8237 65° Northeast 460 529 39,000  Level FlightAware UK
08:48PM 53.2195 4.8264 65° Northeast 437 503 39,000  Level FlightAware ADS-B (KAUN)
08:48PM 53.2464 4.9230 65° Northeast 439 505 39,000  Level FlightAware ADS-B (KAUN)
08:49PM 53.2932 5.0922 65° Northeast 442 509 39,000  Level FlightAware ADS-B (KAUN)
08:50PM 53.3259 5.2134 65° Northeast 464 534 39,000  Level FlightAware UK
08:50PM 53.3281 5.2195 65° Northeast 443 510 39,000  Level FlightAware ADS-B (KAUN)
08:51PM 53.3832 5.4227 65° Northeast 462 532 39,000  Level FlightAware UK
08:51PM 53.4132 5.5339 66° East 462 532 39,000  Level FlightAware UK
08:52PM 53.4436 5.6474 66° East 462 532 39,000  Level FlightAware UK
08:52PM 53.4540 5.6836 66° East 449 517 39,000  Level FlightAware ADS-B (EDLW / DTM)
08:53PM 53.4883 5.8121 66° East 449 517 39,000  Level FlightAware ADS-B (EDLW / DTM)
08:53PM 53.5203 5.9351 66° East 462 532 39,000  Level FlightAware UK
08:53PM 53.5226 5.9408 66° East 450 518 39,000  Level FlightAware ADS-B (EDLW / DTM)
08:54PM 53.5630 6.0936 66° East 450 518 39,000  Level FlightAware ADS-B (EDLW / DTM)
08:55PM 53.5973 6.2242 66° East 449 517 39,000  Level FlightAware ADS-B (EDLW / DTM)
08:56PM 53.6307 6.3520 66° East 449 517 39,000  Level FlightAware ADS-B (EDLW / DTM)
08:56PM 53.6561 6.4493 66° East 449 517 39,000  Level FlightAware ADS-B (EDLW / DTM)
08:57PM 53.6864 6.5658 66° East 462 532 39,000  Level FlightAware UK
08:57PM 53.6893 6.5775 66° East 449 517 39,000  Level FlightAware ADS-B (EDLW / DTM)
08:57PM 53.7159 6.6803 66° East 460 529 39,000  Level FlightAware UK
08:57PM 53.7220 6.7044 66° East 449 517 39,000  Level FlightAware ADS-B (EDLW / DTM)
08:58PM 53.7457 6.7968 67° East 448 516 39,000  Level FlightAware ADS-B (EDLW / DTM)
08:58PM 53.7700 6.8924 67° East 448 516 39,000  Level FlightAware ADS-B (EDLW / DTM)
08:59PM 53.7957 6.9937 67° East 449 517 39,000  Level FlightAware ADS-B (EDLW / DTM)
08:59PM 53.8199 7.0897 67° East 448 516 39,000  Level FlightAware ADS-B (EDLW / DTM)
09:00PM 53.8439 7.1850 67° East 448 516 39,000  Level FlightAware ADS-B (EDLW / DTM)
09:00PM 53.8681 7.2817 67° East 448 516 39,000  Level FlightAware ADS-B (EDLW / DTM)
09:01PM 53.8922 7.3779 67° East 449 517 39,000  Level FlightAware ADS-B (EDLW / DTM)
09:01PM 53.9168 7.4772 67° East 450 518 39,000  Level FlightAware ADS-B (EDLW / DTM)
09:02PM 53.9408 7.5743 67° East 451 519 39,000  Level FlightAware ADS-B (EDLW / DTM)
09:02PM 53.9646 7.6710 67° East 452 520 39,000  Level FlightAware ADS-B (EDLW / DTM)
09:03PM 53.9885 7.7686 67° East 453 521 39,000  Level FlightAware ADS-B (EDLW / DTM)
09:03PM 54.0127 7.8677 67° East 452 520 39,000  Level FlightAware ADS-B (EDLW / DTM)
09:04PM 54.0361 7.9636 67° East 452 520 39,000  Level FlightAware ADS-B (EDLW / DTM)
09:04PM 54.0605 8.0645 68° East 451 519 39,000  Level FlightAware ADS-B (EDLW / DTM)
09:05PM 54.0838 8.1617 68° East 452 520 39,000  Level FlightAware ADS-B (EDLW / DTM)
09:06PM 54.1131 8.2834 68° East 451 519 39,000  Level FlightAware ADS-B (ESMN)
09:06PM 54.1438 8.4124 68° East 452 520 39,000  Level FlightAware ADS-B (ESMN)
09:07PM 54.1679 8.5145 68° East 453 521 39,000  Level FlightAware ADS-B (ESMN)
09:07PM 54.1973 8.6394 68° East 455 524 39,000  Level FlightAware ADS-B (ESMN)
09:08PM 54.2218 8.7437 68° East 456 525 39,000  Level FlightAware ADS-B (ESMN)
09:09PM 54.2529 8.8770 68° East 457 526 39,000  Level FlightAware ADS-B (ESMN)
09:09PM 54.2753 8.9741 68° East 457 526 39,000  Level FlightAware ADS-B (ESMN)
09:10PM 54.3076 9.1143 68° East 458 527 39,000  Level FlightAware ADS-B (ESMN)
09:10PM 54.3308 9.2154 68° East 457 526 39,000  Level FlightAware ADS-B (ESMN)
09:11PM 54.3540 9.3172 69° East 457 526 39,000  Level FlightAware ADS-B (ESMN)
09:11PM 54.3775 9.4206 69° East 456 525 39,000  Level FlightAware ADS-B (ESMN)
09:12PM 54.4000 9.5197 69° East 457 526 39,000  Level FlightAware ADS-B (ESMN)
09:12PM 54.4229 9.6217 69° East 457 526 39,000  Level FlightAware ADS-B (ESMN)
09:13PM 54.4454 9.7223 69° East 455 524 39,000  Level FlightAware ADS-B (ESMN)
09:13PM 54.4751 9.8558 69° East 456 525 39,000  Level FlightAware ADS-B (ESMN)
09:14PM 54.4982 9.9602 69° East 456 525 39,000  Level FlightAware ADS-B (ESMN)
09:15PM 54.5277 10.0945 69° East 457 526 39,000  Level FlightAware ADS-B (ESMN)
09:15PM 54.5497 10.1952 69° East 457 526 39,000  Level FlightAware ADS-B (ESMN)
09:16PM 54.5797 10.3333 69° East 460 529 39,000  Level FlightAware ADS-B (ESMN)
09:16PM 54.6088 10.4679 69° East 461 531 39,000  Level FlightAware ADS-B (ESMN)
09:17PM 54.6310 10.5711 70° East 460 529 39,000  Level FlightAware ADS-B (ESMN)
09:18PM 54.6600 10.7072 70° East 459 528 39,000  Level FlightAware ADS-B (ESMN)
09:18PM 54.6824 10.8125 70° East 459 528 39,000  Level FlightAware ADS-B (ESMN)
09:19PM 54.7118 10.9519 70° East 460 529 39,000  Level FlightAware ADS-B (ESMN)
09:19PM 54.7401 11.0866 70° East 462 532 39,000  Level FlightAware ADS-B (ESMN)
09:20PM 54.7626 11.1946 70° East 462 532 39,000  Level FlightAware ADS-B (ESMN)
09:20PM 54.7837 11.2969 70° East 463 533 39,000  Level FlightAware ADS-B (ESMN)
09:21PM 54.8044 11.3971 70° East 463 533 39,000  Level FlightAware ADS-B (ESMN)
09:21PM 54.8270 11.5070 70° East 463 533 39,000  Level FlightAware ADS-B (ESMN)
09:22PM 54.8547 11.6433 70° East 463 533 39,000  Level FlightAware ADS-B (ESMN)
09:23PM 54.8764 11.7507 71° East 464 534 39,000  Level FlightAware ADS-B (ESMN)
09:23PM 54.9038 11.8870 71° East 465 535 39,000  Level FlightAware ADS-B (ESMN)
09:24PM 54.9258 11.9967 71° East 466 536 39,000  Level FlightAware ADS-B (ESMN)
09:24PM 54.9469 12.1028 71° East 467 537 39,000  Level FlightAware ADS-B (ESMN)
09:25PM 54.9694 12.2486 75° East 472 543 39,000  Level FlightAware ADS-B (ESMN)
09:25PM 54.9727 12.3604 87° East 475 547 39,000  Level FlightAware ADS-B (ESMN)
09:26PM 54.9766 12.4772 87° East 475 547 39,000  Level FlightAware ADS-B (ESMN)
09:26PM 54.9828 12.5886 84° East 474 545 39,000  Level FlightAware ADS-B (ESMN)
09:27PM 54.9888 12.7074 85° East 474 545 39,000  Level FlightAware ADS-B (ESMN)
09:27PM 54.9939 12.8197 85° East 473 544 39,000  Level FlightAware ADS-B (ESMN)
09:28PM 55.0005 12.9682 86° East 473 544 39,000  Level FlightAware ADS-B (ESMN)
09:29PM 55.0056 13.0855 86° East 473 544 39,000  Level FlightAware ADS-B (ESMN)
09:29PM 55.0120 13.2375 86° East 473 544 39,000  Level FlightAware ADS-B (ESMN)
09:30PM 55.0140 13.3494 88° East 474 545 39,000  Level FlightAware ADS-B (ESMN)
09:30PM 55.0133 13.4997 90° East 474 545 39,000  Level FlightAware ADS-B (ESMN)
09:31PM 55.0134 13.6191 90° East 475 547 39,000  Level FlightAware ADS-B (ESMN)
09:31PM 55.0136 13.7282 90° East 476 548 39,000  Level FlightAware ADS-B (ESMN)
09:32PM 55.0139 13.8454 90° East 476 548 39,000  Level FlightAware ADS-B (ESMN)
09:33PM 55.0139 13.9976 90° East 475 547 39,000  Level FlightAware ADS-B (ESMN)
09:33PM 55.0139 14.1142 90° East 476 548 39,000  Level FlightAware ADS-B (ESMN)
09:34PM 55.0136 14.2651 90° East 477 549 39,000  Level FlightAware ADS-B (ESMN)
09:34PM 55.0134 14.3809 90° East 474 545 39,000  Level FlightAware ADS-B (ESMN)
09:35PM 55.0128 14.5322 90° East 473 544 39,000  Level FlightAware ADS-B (ESMN)
09:35PM 55.0123 14.6472 90° East 474 545 39,000  Level FlightAware ADS-B (ESMN)
09:36PM 55.0114 14.7934 91° East 475 547 39,000  Level FlightAware ADS-B (ESMN)
09:37PM 55.0106 14.9129 91° East 474 545 39,000  Level FlightAware ADS-B (ESMN)
09:37PM 55.0096 15.0274 91° East 475 547 39,000  Level FlightAware ADS-B (ESMN)
09:38PM 55.0086 15.1422 91° East 476 548 39,000  Level FlightAware ADS-B (ESMN)
09:38PM 55.0075 15.2556 91° East 477 549 39,000  Level FlightAware ADS-B (ESMN)
09:39PM 55.0059 15.4062 91° East 478 550 39,000  Level FlightAware ADS-B (ESMN)
09:39PM 55.0044 15.5233 91° East 479 551 39,000  Level FlightAware ADS-B (ESMN)
09:40PM 55.0029 15.6390 91° East 479 551 39,000  Level FlightAware ADS-B (ESMN)
09:40PM 55.0014 15.7497 91° East 478 550 39,000  Level FlightAware ADS-B (ESMN)
09:41PM 54.9991 15.9051 91° East 478 550 39,000  Level FlightAware ADS-B (ESMN)
09:41PM 54.9971 16.0223 92° East 480 552 39,000  Level FlightAware ADS-B (ESMN)
09:42PM 54.9951 16.1397 92° East 481 554 39,000  Level FlightAware ADS-B (ESMN)
09:42PM 54.9931 16.2544 92° East 482 555 39,000  Level FlightAware ADS-B (ESMN)
09:43PM 54.9908 16.3741 92° East 483 556 39,000  Level FlightAware ADS-B (ESMN)
09:44PM 54.9881 16.5136 92° East 483 556 39,000  Level FlightAware ADS-B (ESMN)
09:44PM 54.9854 16.6394 92° East 482 555 39,000  Level FlightAware ADS-B (ESMN)
09:45PM 54.9828 16.7555 92° East 482 555 39,000  Level FlightAware ADS-B (ESMN)
09:45PM 54.9801 16.8718 92° East 482 555 39,000  Level FlightAware ADS-B (ESMN)
09:46PM 54.9765 17.0218 92° East 482 555 39,000  Level FlightAware ADS-B (ESMN)
09:46PM 54.9734 17.1442 92° East 481 554 39,000  Level FlightAware ADS-B (ESMN)
09:47PM 54.9702 17.2599 93° East 481 554 39,000  Level FlightAware ADS-B (ESMN)
09:47PM 54.9670 17.3781 93° East 480 552 39,000  Level FlightAware ADS-B (ESMN)
09:48PM 54.9629 17.5273 93° East 480 552 39,000  Level FlightAware ADS-B (ESMN)
09:48PM 54.9593 17.6471 93° East 481 554 39,000  Level FlightAware ADS-B (ESMN)
09:49PM 54.9558 17.7622 93° East 483 556 39,000  Level FlightAware ADS-B (ESMN)
09:49PM 54.9521 17.8802 93° East 484 557 39,000  Level FlightAware ADS-B (ESMN)
09:50PM 54.9484 17.9934 93° East 485 558 39,000  Level FlightAware ADS-B (ESMN)
09:51PM 54.9430 18.1507 93° East 486 559 39,000  Level FlightAware ADS-B (ESMN)
09:51PM 54.9391 18.2659 93° East 486 559 39,000  Level FlightAware ADS-B (ESMN)
09:51PM 54.9378 18.3023 93° East 486 559 39,000  Level FlightAware ADS-B (ESMN)
09:52PM 54.9335 18.4216 94° East 486 559 39,000  Level FlightAware ADS-B (ESMN)
09:52PM 54.9292 18.5401 94° East 486 559 39,000  Level FlightAware ADS-B (ESMN)
09:53PM 54.9236 18.6850 94° East 485 558 39,000  Level FlightAware ADS-B (ESMN)
09:53PM 54.9231 18.6999 94° East 484 557 39,000  Level FlightAware ADS-B (ESMN)
09:54PM 54.9126 18.9641 94° East 483 556 39,000  Level FlightAware ADS-B (EPSY / SZY)
09:55PM 54.9094 19.0832 93° East 483 556 39,000  Level FlightAware ADS-B (EPSY / SZY)
09:55PM 54.9074 19.2371 91° East 482 555 39,000  Level FlightAware ADS-B (EPSY / SZY)
09:56PM 54.9055 19.3409 92° East 482 555 39,000  Level FlightAware ADS-B (EPSY / SZY)
09:56PM 54.9029 19.4694 92° East 482 555 39,000  Level FlightAware ADS-B (EPSY / SZY)
09:57PM 54.9007 19.5692 92° East 483 556 39,000  Level FlightAware ADS-B (EPSY / SZY)
09:57PM 54.8985 19.6978 92° East 483 556 39,000  Level FlightAware ADS-B (EPSY / SZY)
09:58PM 54.8986 19.8175 90° East 484 557 39,000  Level FlightAware ADS-B (EPSY / SZY)
09:58PM 54.8985 19.9359 90° East 484 557 39,000  Level FlightAware ADS-B (EPSY / SZY)
09:59PM 54.8979 20.0498 90° East 485 558 39,000  Level FlightAware ADS-B (EPSY / SZY)
09:59PM 54.8972 20.1658 91° East 485 558 39,000  Level FlightAware ADS-B (EPSY / SZY)
10:00PM 54.8963 20.2795 91° East 486 559 39,000  Level FlightAware ADS-B (EPSY / SZY)
10:00PM 54.8952 20.4024 91° East 488 562 39,000  Level FlightAware ADS-B (EPSY / SZY)
10:01PM 54.8938 20.5550 91° East 489 563 39,000  Level FlightAware ADS-B (EPSY / SZY)
10:01PM 54.8946 20.6712 89° East 490 564 39,000  Level FlightAware ADS-B (EPSY / SZY)
10:02PM 54.8969 20.7856 88° East 490 564 39,000  Level FlightAware ADS-B (EPSY / SZY)
10:03PM 54.8997 20.9477 88° East 492 566 39,000  Level FlightAware ADS-B (EPSY / SZY)
10:03PM 54.9002 20.9779 88° East 492 566 39,000  Level FlightAware ADS-B (KJVY)
10:03PM 54.9023 21.1057 88° East 493 567 39,000  Level FlightAware ADS-B (EPSY / SZY)
10:04PM 54.9043 21.2257 88° East 495 570 39,000  Level FlightAware ADS-B (EPSY / SZY)
10:04PM 54.9065 21.3430 88° East 495 570 39,000  Level FlightAware ADS-B (EPSY / SZY)
10:05PM 54.9117 21.5005 87° East 494 568 39,000  Level FlightAware ADS-B (EPSY / SZY)
10:05PM 54.9152 21.6177 87° East 494 568 39,000  Level FlightAware ADS-B (EPSY / SZY)
10:06PM 54.9185 21.7362 87° East 493 567 39,000  Level FlightAware ADS-B (EPSY / SZY)
10:06PM 54.9215 21.8546 87° East 492 566 39,000  Level FlightAware ADS-B (EPSY / SZY)
10:07PM 54.9246 21.9728 87° East 492 566 39,000  Level FlightAware ADS-B (EPSY / SZY)
10:07PM 54.9276 22.0928 87° East 493 567 39,000  Level FlightAware ADS-B (EPSY / SZY)
10:08PM 54.9304 22.2087 88° East 492 566 39,000  Level FlightAware ADS-B (EPSY / SZY)
10:08PM 54.9330 22.3271 88° East 491 565 39,000  Level FlightAware ADS-B (EPSY / SZY)
10:09PM 54.9355 22.4454 88° East 490 564 39,000  Level FlightAware ADS-B (EPSY / SZY)
10:09PM 54.9380 22.5651 88° East 489 563 39,000  Level FlightAware ADS-B (EPSY / SZY)
10:10PM 54.9403 22.6848 88° East 490 564 39,000  Level FlightAware ADS-B (EPSY / SZY)
10:10PM 54.9455 22.8001 86° East 491 565 39,000  Level FlightAware ADS-B (EPSY / SZY)
10:11PM 54.9537 22.9185 83° East 491 565 39,000  Level FlightAware ADS-B (EPSY / SZY)
10:11PM 54.9614 23.0370 83° East 492 566 39,000  Level FlightAware ADS-B (EPSY / SZY)
10:12PM 54.9687 23.1490 84° East 492 566 39,000  Level FlightAware ADS-B (EPSY / SZY)
10:13PM 54.9775 23.2874 84° East 493 567 39,000  Level FlightAware ADS-B (KJVY)
10:13PM 54.9847 23.4020 84° East 493 567 39,000  Level FlightAware ADS-B (KJVY)
10:14PM 54.9918 23.5177 84° East 494 568 39,000  Level FlightAware ADS-B (KJVY)
10:14PM 55.0004 23.6591 84° East 495 570 39,000  Level FlightAware ADS-B (EPSY / SZY)
10:15PM 55.0099 23.8199 84° East 495 570 39,000  Level FlightAware ADS-B (EPSY / SZY)
10:15PM 55.0164 23.9295 84° East 495 570 39,000  Level FlightAware ADS-B (KJVY)
10:16PM 55.0234 24.0525 84° East 494 568 39,000  Level FlightAware ADS-B (EPSY / SZY)
10:16PM 55.0296 24.1629 84° East 494 568 39,000  Level FlightAware ADS-B (KJVY)
10:17PM 55.0371 24.2979 84° East 493 567 39,000  Level FlightAware ADS-B (KJVY)
10:17PM 55.0437 24.4213 85° East 493 567 39,000  Level FlightAware ADS-B (KJVY)
10:18PM 55.0506 24.5509 85° East 492 566 39,000  Level FlightAware ADS-B (KJVY)
10:18PM 55.0578 24.6896 85° East 493 567 39,000  Level FlightAware ADS-B (EPSY / SZY)
10:19PM 55.0637 24.8057 85° East 494 568 39,000  Level FlightAware ADS-B (EPSY / SZY)
10:19PM 55.0699 24.9281 85° East 494 568 39,000  Level FlightAware ADS-B (EPSY / SZY)
10:20PM 55.0753 25.0379 85° East 495 570 39,000  Level FlightAware ADS-B (EPSY / SZY)
10:20PM 55.0814 25.1639 85° East 496 571 39,000  Level FlightAware ADS-B (EPSY / SZY)
10:21PM 55.0871 25.2850 85° East 495 570 39,000  Level FlightAware ADS-B (EPSY / SZY)
10:22PM 55.0941 25.4379 85° East 494 568 39,000  Level FlightAware ADS-B (KJVY)
10:22PM 55.1007 25.5881 85° East 495 570 39,000  Level FlightAware ADS-B (KJVY)
10:23PM 55.1072 25.7370 86° East 494 568 39,000  Level FlightAware ADS-B (KJVY)
10:23PM 55.1124 25.8598 86° East 495 570 39,000  Level FlightAware ADS-B (KJVY)
10:24PM 55.1180 25.9966 86° East 496 571 39,000  Level FlightAware ADS-B (EPSY / SZY)
10:25PM 55.1243 26.1555 86° East 497 572 39,000  Level FlightAware ADS-B (EPSY / SZY)
10:25PM 55.1288 26.2724 86° East 498 573 39,000  Level FlightAware ADS-B (EPSY / SZY)
10:26PM 55.1274 26.2341 266° West 497 572 39,000  Level FlightAware ADS-B (KJVY)
10:27PM 55.1390 26.5723 86° East 496 571 39,000  Level FlightAware ADS-B (EPSY / SZY)
10:29PM 55.1805 26.9126 78° East  Level Estimated
10:29PM 55.1367 26.4821 78° East 497 572 39,000  Level FlightAware ADS-B (KJVY)
10:30PM 55.1444 27.3374 78° East 499 574 39,000  Level FlightAware ADS-B (EPSY / SZY)
10:31PM 55.1782 26.8224 78° East  Level Estimated
10:32PM 55.2031 27.0311 78° East  Level Estimated
10:33PM 55.2166 27.9244 78° East  Level Estimated
10:34PM 55.2416 28.1333 78° East  Level Estimated
10:35PM 55.2662 28.3425 78° East  Level Estimated
10:36PM 55.2905 28.5519 78° East  Level Estimated
10:37PM 55.3144 28.7616 79° East  Level Estimated
10:38PM 55.3379 28.9715 79° East  Level Estimated
10:39PM 55.3611 29.1817 79° East  Level Estimated
10:40PM 55.3839 29.3922 79° East  Level Estimated
10:41PM 55.4064 29.6028 79° East  Level Estimated
10:42PM 55.4285 29.8137 79° East  Level Estimated
10:43PM 55.4502 30.0249 80° East  Level Estimated
10:44PM 55.4716 30.2362 80° East  Level Estimated
10:45PM 55.4926 30.4478 80° East  Level Estimated
10:46PM 55.5132 30.6597 80° East  Level Estimated
10:47PM 55.5335 30.8717 80° East  Level Estimated
10:48PM 55.5534 31.0840 81° East  Level Estimated
10:49PM 55.5729 31.2964 81° East  Level Estimated
10:50PM 55.5921 31.5091 81° East  Level Estimated
10:51PM 55.6109 31.7220 81° East  Level Estimated
10:52PM 55.6293 31.9351 81° East  Level Estimated
10:53PM 55.6474 32.1484 81° East  Level Estimated
10:54PM 55.6651 32.3619 82° East  Level Estimated
10:55PM 55.6824 32.5756 82° East  Level Estimated
10:56PM 55.6994 32.7894 82° East  Level Estimated
10:57PM 55.7160 33.0035 82° East  Level Estimated
10:58PM 55.7322 33.2177 82° East  Level Estimated
10:59PM 55.7480 33.4321 82° East  Level Estimated
11:00PM 55.7635 33.6467 83° East  Level Estimated
11:01PM 55.7785 33.8614 83° East  Level Estimated
11:02PM 55.7933 34.0763 83° East  Level Estimated
11:03PM 55.8076 34.2914 83° East  Level Estimated
11:04PM 55.8215 34.5066 83° East  Level Estimated
11:05PM 55.8351 34.7220 84° East  Level Estimated
11:06PM 55.8484 34.9375 84° East  Level Estimated
11:07PM 55.8612 35.1532 84° East  Level Estimated
11:08PM 55.8736 35.3690 84° East  Level Estimated
11:09PM 55.8857 35.5849 84° East  Level Estimated
11:10PM 55.8974 35.8010 84° East  Level Estimated
11:11PM 55.9087 36.0172 85° East  Level Estimated
11:12PM 55.9197 36.2336 85° East  Level Estimated
11:13PM 55.9302 36.4500 85° East  Level Estimated
11:14PM 55.9404 36.6666 85° East  Level Estimated
11:15PM 55.9502 36.8833 85° East  Level Estimated
11:16PM 55.9596 37.1000 85° East  Level Estimated
11:17PM 55.9687 37.3169 86° East  Level Estimated
11:18PM 55.9726 37.4146 86° East  Level Estimated
11:19PM 55.9726 37.4146 344° North  Level Estimated
11:20PM 55.9726 37.4146 344° North  Level Estimated
11:21PM 55.9726 37.4146 344° North  Level Estimated
11:22PM 55.9726 37.4146 344° North  Level Estimated
11:23PM 55.9726 37.4146 344° North  Level Estimated
11:24PM 55.9726 37.4146 344° North  Level Estimated
11:25PM 55.9726 37.4146 344° North  Level Estimated
11:26PM 55.9726 37.4146 344° North  Level Estimated
11:27PM 55.9726 37.4146 344° North  Level Estimated